Time;durP1;ratioP1;P1;durP2;ratioP2;P2;SDS_P1;SDS_P2;PMS_P1;PMS_P2;Temp;Humidity;BMP_temperature;BMP_pressure;BME280_temperature;BME280_humidity;BME280_pressure;Samples;Min_cycle;Max_cycle;Signal;HPM_P1;HPM_P2
2024/01/29 00:02:30;;;;;;;5.33;2.97;;;;;;;;;;6312816;28;20035;-89
2024/01/29 00:05:30;;;;;;;5.15;2.78;;;;;;;;;;6314183;28;20069;-88
2024/01/29 00:08:31;;;;;;;4.40;2.40;;;;;;;;;;6314218;28;20021;-89
2024/01/29 00:11:33;;;;;;;4.03;2.40;;;;;;;;;;6301533;28;20062;-88
2024/01/29 00:14:33;;;;;;;4.63;2.85;;;;;;;;;;6288194;28;20044;-88
2024/01/29 00:17:36;;;;;;;3.13;2.30;;;;;;;;;;6300838;28;20024;-87
2024/01/29 00:20:36;;;;;;;5.00;2.63;;;;;;;;;;6308611;28;20024;-88
2024/01/29 00:23:37;;;;;;;4.03;2.10;;;;;;;;;;6286409;28;20480;-89
2024/01/29 00:26:39;;;;;;;3.50;2.03;;;;;;;;;;6275673;28;20025;-88
2024/01/29 00:29:39;;;;;;;4.50;2.22;;;;;;;;;;6269664;28;20165;-88
2024/01/29 00:32:42;;;;;;;3.67;1.97;;;;;;;;;;6277435;28;20028;-89
2024/01/29 00:35:42;;;;;;;3.47;2.00;;;;;;;;;;6290020;28;20352;-88
2024/01/29 00:38:43;;;;;;;3.90;2.00;;;;;;;;;;6287714;28;20036;-88
2024/01/29 00:41:43;;;;;;;3.43;2.30;;;;;;;;;;6287546;28;20381;-89
2024/01/29 00:44:44;;;;;;;2.87;1.77;;;;;;;;;;6273868;28;20041;-89
2024/01/29 00:47:45;;;;;;;6.75;2.60;;;;;;;;;;6267705;28;20082;-84
2024/01/29 00:50:45;;;;;;;7.67;3.40;;;;;;;;;;6268043;28;20041;-89
2024/01/29 00:53:47;;;;;;;30.93;8.80;;;;;;;;;;6267450;28;20028;-89
2024/01/29 00:56:47;;;;;;;;;;;;;;;;;;6270194;28;20078;-88
2024/01/29 00:59:47;;;;;;;18.52;6.85;;;;;;;;;;6289801;28;19952;-88
2024/01/29 01:02:47;;;;;;;16.43;5.70;;;;;;;;;;6269866;28;20278;-88
2024/01/29 01:05:48;;;;;;;11.53;4.80;;;;;;;;;;6268623;28;20466;-89
2024/01/29 01:08:48;;;;;;;10.27;3.77;;;;;;;;;;6279251;28;20056;-88
2024/01/29 01:11:49;;;;;;;7.20;3.60;;;;;;;;;;6272768;28;20024;-87
2024/01/29 01:14:49;;;;;;;9.50;3.57;;;;;;;;;;6283444;28;20099;-89
2024/01/29 01:17:52;;;;;;;13.33;4.63;;;;;;;;;;6263256;28;20098;-88
2024/01/29 01:20:52;;;;;;;11.15;5.05;;;;;;;;;;6264801;28;20035;-89
2024/01/29 01:23:53;;;;;;;12.17;5.50;;;;;;;;;;6269408;28;20024;-88
2024/01/29 01:26:53;;;;;;;15.03;6.00;;;;;;;;;;6285301;28;20063;-88
2024/01/29 01:29:53;;;;;;;16.97;6.47;;;;;;;;;;6286674;28;20378;-88
2024/01/29 01:32:54;;;;;;;13.30;5.63;;;;;;;;;;6288323;28;20024;-88
2024/01/29 01:35:54;;;;;;;11.97;4.73;;;;;;;;;;6272298;28;20445;-88
2024/01/29 01:38:55;;;;;;;8.13;3.63;;;;;;;;;;6281686;28;20487;-89
2024/01/29 01:41:57;;;;;;;7.90;3.63;;;;;;;;;;6267884;28;20078;-88
2024/01/29 01:44:58;;;;;;;8.85;3.80;;;;;;;;;;6276700;28;20020;-88
2024/01/29 01:47:58;;;;;;;6.33;2.87;;;;;;;;;;6267003;28;20070;-89
2024/01/29 01:50:58;;;;;;;4.40;2.43;;;;;;;;;;6285095;28;20021;-88
2024/01/29 01:54:00;;;;;;;4.23;2.20;;;;;;;;;;6271221;28;20464;-89
2024/01/29 01:57:01;;;;;;;3.33;1.88;;;;;;;;;;6263159;28;20037;-88
2024/01/29 02:00:02;;;;;;;3.40;1.97;;;;;;;;;;6281587;28;20039;-89
2024/01/29 02:03:03;;;;;;;2.85;1.70;;;;;;;;;;6288502;28;20332;-88
2024/01/29 02:06:03;;;;;;;3.83;1.55;;;;;;;;;;6286057;28;20039;-88
2024/01/29 02:09:05;;;;;;;3.33;1.50;;;;;;;;;;6271442;28;20060;-88
2024/01/29 02:12:08;;;;;;;2.33;1.40;;;;;;;;;;6262785;28;20159;-88
2024/01/29 02:15:08;;;;;;;3.20;1.67;;;;;;;;;;6282119;28;20025;-88
2024/01/29 02:18:09;;;;;;;3.80;1.67;;;;;;;;;;6270484;28;20036;-88
2024/01/29 02:21:09;;;;;;;3.07;1.70;;;;;;;;;;6284482;28;20025;-89
2024/01/29 02:24:10;;;;;;;3.07;1.47;;;;;;;;;;6281717;28;20023;-89
2024/01/29 02:27:13;;;;;;;3.97;1.80;;;;;;;;;;6268001;28;20103;-89
2024/01/29 02:30:13;;;;;;;2.75;1.42;;;;;;;;;;6263228;28;20411;-89
2024/01/29 02:33:14;;;;;;;1.70;1.30;;;;;;;;;;6288613;28;20029;-88
2024/01/29 02:36:14;;;;;;;3.23;1.63;;;;;;;;;;6283419;28;20036;-89
2024/01/29 02:39:17;;;;;;;2.20;1.50;;;;;;;;;;6263562;28;20033;-88
2024/01/29 02:42:17;;;;;;;3.13;1.55;;;;;;;;;;6266542;28;20055;-89
2024/01/29 02:45:18;;;;;;;4.13;1.70;;;;;;;;;;6267189;28;20054;-87
2024/01/29 02:48:18;;;;;;;1.97;1.47;;;;;;;;;;6288844;28;20386;-89
2024/01/29 02:51:18;;;;;;;2.33;1.30;;;;;;;;;;6286505;28;20438;-88
2024/01/29 02:54:19;;;;;;;2.27;1.50;;;;;;;;;;6288051;28;20027;-88
2024/01/29 02:57:23;;;;;;;2.40;1.50;;;;;;;;;;6284460;28;20054;-88
2024/01/29 03:00:24;;;;;;;2.92;1.40;;;;;;;;;;6268484;28;20032;-88
2024/01/29 03:03:25;;;;;;;3.40;1.75;;;;;;;;;;6285078;28;20042;-89
2024/01/29 03:06:25;;;;;;;2.73;1.63;;;;;;;;;;6285972;28;20037;-89
2024/01/29 03:09:25;;;;;;;2.43;1.50;;;;;;;;;;6286489;28;20124;-89
2024/01/29 03:12:26;;;;;;;2.80;1.77;;;;;;;;;;6283704;28;20473;-88
2024/01/29 03:15:26;;;;;;;2.40;1.63;;;;;;;;;;6266099;28;20021;-88
2024/01/29 03:18:26;;;;;;;3.47;1.63;;;;;;;;;;6282463;28;20037;-89
2024/01/29 03:21:27;;;;;;;2.37;1.80;;;;;;;;;;6283735;28;20029;-89
2024/01/29 03:24:27;;;;;;;3.37;1.77;;;;;;;;;;6269663;28;20435;-89
2024/01/29 03:27:28;;;;;;;3.43;1.80;;;;;;;;;;6292428;28;20024;-90
2024/01/29 03:30:28;;;;;;;3.00;1.40;;;;;;;;;;6272400;28;20028;-88
2024/01/29 03:33:28;;;;;;;3.70;1.57;;;;;;;;;;6288133;28;20120;-88
2024/01/29 03:36:29;;;;;;;2.43;1.67;;;;;;;;;;6275166;28;20536;-88
2024/01/29 03:39:29;;;;;;;3.27;1.47;;;;;;;;;;6292134;28;20124;-88
2024/01/29 03:42:29;;;;;;;2.83;1.67;;;;;;;;;;6287437;28;20051;-88
2024/01/29 03:45:30;;;;;;;3.17;1.80;;;;;;;;;;6291595;28;20346;-89
2024/01/29 03:48:30;;;;;;;2.83;1.83;;;;;;;;;;6292538;28;20029;-87
2024/01/29 03:51:30;;;;;;;3.33;1.83;;;;;;;;;;6298848;28;20025;-88
2024/01/29 03:54:31;;;;;;;2.83;1.77;;;;;;;;;;6287902;28;20032;-88
2024/01/29 03:57:31;;;;;;;3.17;1.90;;;;;;;;;;6271143;28;20013;-88
2024/01/29 04:00:32;;;;;;;2.53;1.77;;;;;;;;;;6292773;28;20362;-89
2024/01/29 04:03:34;;;;;;;3.20;1.83;;;;;;;;;;6286868;28;20527;-89
2024/01/29 04:06:35;;;;;;;3.78;1.95;;;;;;;;;;6289789;28;20032;-89
2024/01/29 04:09:35;;;;;;;2.87;1.87;;;;;;;;;;6290405;28;20480;-88
2024/01/29 04:12:35;;;;;;;1.73;1.63;;;;;;;;;;6288757;28;20496;-89
2024/01/29 04:15:36;;;;;;;3.43;1.97;;;;;;;;;;6290585;28;20017;-89
2024/01/29 04:18:37;;;;;;;3.27;1.83;;;;;;;;;;6289804;28;20524;-88
2024/01/29 04:21:43;;;;;;;3.92;1.95;;;;;;;;;;6288651;28;20024;-89
2024/01/29 04:24:44;;;;;;;2.55;1.80;;;;;;;;;;6267315;28;20040;-89
2024/01/29 04:27:46;;;;;;;3.73;1.80;;;;;;;;;;6287971;28;20036;-88
2024/01/29 04:30:47;;;;;;;2.90;1.98;;;;;;;;;;6286000;28;20032;-89
2024/01/29 04:33:47;;;;;;;2.87;2.07;;;;;;;;;;6268087;28;20162;-88
2024/01/29 04:36:48;;;;;;;2.07;1.67;;;;;;;;;;6289545;28;20111;-89
2024/01/29 04:39:48;;;;;;;3.00;2.10;;;;;;;;;;6275987;28;20078;-89
2024/01/29 04:42:49;;;;;;;2.67;1.90;;;;;;;;;;6272616;28;20031;-88
2024/01/29 04:45:49;;;;;;;4.93;2.10;;;;;;;;;;6268580;28;20040;-88
2024/01/29 04:48:49;;;;;;;3.33;1.77;;;;;;;;;;6286181;28;20023;-88
2024/01/29 04:51:50;;;;;;;3.13;2.10;;;;;;;;;;6290783;28;20490;-89
2024/01/29 04:54:52;;;;;;;3.03;1.80;;;;;;;;;;6276712;28;20059;-88
2024/01/29 04:57:53;;;;;;;3.90;2.03;;;;;;;;;;6266970;28;20029;-89
2024/01/29 05:00:53;;;;;;;2.80;1.87;;;;;;;;;;6290457;28;20504;-88
2024/01/29 05:03:54;;;;;;;3.53;1.97;;;;;;;;;;6290004;28;20074;-88
2024/01/29 05:06:54;;;;;;;2.93;1.77;;;;;;;;;;6288602;28;20028;-87
2024/01/29 05:09:54;;;;;;;3.03;1.90;;;;;;;;;;6271967;28;20043;-89
2024/01/29 05:12:55;;;;;;;3.40;1.87;;;;;;;;;;6291068;28;20398;-88
2024/01/29 05:15:55;;;;;;;2.70;1.77;;;;;;;;;;6267552;28;20119;-87
2024/01/29 05:18:55;;;;;;;3.10;1.90;;;;;;;;;;6271184;28;20060;-88
2024/01/29 05:21:56;;;;;;;2.63;1.93;;;;;;;;;;6285625;28;20028;-88
2024/01/29 05:24:56;;;;;;;4.33;1.73;;;;;;;;;;6290071;28;20049;-89
2024/01/29 05:27:56;;;;;;;4.00;2.00;;;;;;;;;;6270353;28;20119;-88
2024/01/29 05:30:57;;;;;;;2.53;1.93;;;;;;;;;;6281731;28;20119;-88
2024/01/29 05:33:57;;;;;;;2.87;1.90;;;;;;;;;;6269608;28;20025;-89
2024/01/29 05:36:57;;;;;;;2.97;1.90;;;;;;;;;;6283591;28;20028;-84
2024/01/29 05:39:58;;;;;;;2.40;1.50;;;;;;;;;;6290763;28;20037;-85
2024/01/29 05:42:58;;;;;;;2.63;1.63;;;;;;;;;;6273845;28;20073;-85
2024/01/29 05:46:02;;;;;;;2.80;1.70;;;;;;;;;;6282610;28;20029;-85
2024/01/29 05:49:02;;;;;;;4.82;2.13;;;;;;;;;;6282514;28;20028;-85
2024/01/29 05:52:03;;;;;;;3.17;1.87;;;;;;;;;;6285342;28;20032;-85
2024/01/29 05:55:04;;;;;;;2.47;1.80;;;;;;;;;;6286463;28;20028;-85
2024/01/29 05:58:06;;;;;;;2.63;1.98;;;;;;;;;;6265364;28;20215;-85
2024/01/29 06:01:06;;;;;;;2.78;1.85;;;;;;;;;;6269143;28;20024;-85
2024/01/29 06:04:06;;;;;;;4.10;2.23;;;;;;;;;;6285493;28;20060;-84
2024/01/29 06:07:07;;;;;;;3.87;2.37;;;;;;;;;;6288100;28;20016;-84
2024/01/29 06:10:08;;;;;;;3.90;2.13;;;;;;;;;;6277412;28;20025;-84
2024/01/29 06:13:09;;;;;;;3.45;2.38;;;;;;;;;;6255743;28;20060;-85
2024/01/29 06:16:09;;;;;;;4.30;2.27;;;;;;;;;;6259655;28;20121;-84
2024/01/29 06:19:14;;;;;;;3.53;2.20;;;;;;;;;;6247312;28;20021;-85
2024/01/29 06:22:15;;;;;;;3.65;1.98;;;;;;;;;;6253736;28;20485;-85
2024/01/29 06:25:19;;;;;;;5.47;2.50;;;;;;;;;;6261917;28;20028;-85
2024/01/29 06:28:19;;;;;;;2.53;1.90;;;;;;;;;;6260021;28;20078;-84
2024/01/29 06:31:20;;;;;;;3.43;2.23;;;;;;;;;;6265177;28;20036;-81
2024/01/29 06:34:23;;;;;;;3.17;2.10;;;;;;;;;;6262685;28;20025;-88
2024/01/29 06:37:24;;;;;;;4.13;2.40;;;;;;;;;;6258219;28;20139;-82
2024/01/29 06:40:27;;;;;;;3.53;2.22;;;;;;;;;;6251747;28;20565;-83
2024/01/29 06:43:27;;;;;;;5.63;2.58;;;;;;;;;;6257083;28;20112;-82
2024/01/29 06:46:28;;;;;;;4.07;2.47;;;;;;;;;;6247395;28;20430;-84
2024/01/29 06:49:30;;;;;;;4.00;2.20;;;;;;;;;;6259203;28;20595;-83
2024/01/29 06:52:30;;;;;;;2.90;2.50;;;;;;;;;;6260622;28;20105;-84
2024/01/29 06:55:30;;;;;;;3.60;2.47;;;;;;;;;;6260708;28;20029;-84
2024/01/29 06:58:31;;;;;;;5.27;2.33;;;;;;;;;;6264118;28;20059;-84
2024/01/29 07:01:34;;;;;;;4.22;2.22;;;;;;;;;;6267303;28;20107;-85
2024/01/29 07:04:34;;;;;;;3.78;2.78;;;;;;;;;;6256883;28;20040;-84
2024/01/29 07:07:34;;;;;;;5.23;2.50;;;;;;;;;;6254592;28;20057;-84
2024/01/29 07:10:35;;;;;;;4.77;3.20;;;;;;;;;;6263151;28;20023;-83
2024/01/29 07:13:35;;;;;;;3.53;2.50;;;;;;;;;;6272493;28;20091;-84
2024/01/29 07:16:35;;;;;;;3.70;2.53;;;;;;;;;;6287179;28;20032;-83
2024/01/29 07:19:35;;;;;;;4.23;2.60;;;;;;;;;;6289272;28;20504;-84
2024/01/29 07:22:37;;;;;;;6.37;2.67;;;;;;;;;;6270061;28;20039;-84
2024/01/29 07:25:40;;;;;;;3.58;2.50;;;;;;;;;;6284057;28;20070;-85
2024/01/29 07:28:40;;;;;;;4.10;2.83;;;;;;;;;;6302163;28;20049;-84
2024/01/29 07:31:40;;;;;;;3.40;2.40;;;;;;;;;;6309581;28;20081;-84
2024/01/29 07:34:41;;;;;;;3.70;2.30;;;;;;;;;;6297672;28;20020;-84
2024/01/29 07:37:41;;;;;;;4.47;2.83;;;;;;;;;;6282477;28;20033;-85
2024/01/29 07:40:41;;;;;;;5.13;2.70;;;;;;;;;;6295778;28;20036;-85
2024/01/29 07:43:41;;;;;;;4.63;2.73;;;;;;;;;;6289780;28;20535;-83
2024/01/29 07:46:42;;;;;;;4.90;3.10;;;;;;;;;;6280657;28;20032;-84
2024/01/29 07:49:42;;;;;;;4.07;2.83;;;;;;;;;;6296332;28;20020;-84
2024/01/29 07:52:43;;;;;;;4.67;3.13;;;;;;;;;;6301587;28;20032;-83
2024/01/29 07:55:43;;;;;;;5.23;2.93;;;;;;;;;;6301186;28;20024;-83
2024/01/29 07:58:43;;;;;;;5.77;2.83;;;;;;;;;;6300796;28;20394;-86
2024/01/29 08:01:44;;;;;;;4.70;2.73;;;;;;;;;;6298962;28;20111;-83
2024/01/29 08:04:45;;;;;;;3.10;2.50;;;;;;;;;;6276291;28;20051;-85
2024/01/29 08:07:45;;;;;;;5.47;2.80;;;;;;;;;;6288669;28;20020;-86
2024/01/29 08:10:47;;;;;;;4.27;2.53;;;;;;;;;;6300930;28;20031;-83
2024/01/29 08:13:48;;;;;;;3.35;2.67;;;;;;;;;;6291327;28;20081;-89
2024/01/29 08:16:48;;;;;;;4.17;2.63;;;;;;;;;;6259816;28;20027;-88
2024/01/29 08:19:48;;;;;;;5.37;2.83;;;;;;;;;;6275368;28;20017;-89
2024/01/29 08:22:48;;;;;;;6.63;3.33;;;;;;;;;;6289223;28;20095;-88
2024/01/29 08:25:49;;;;;;;3.97;2.67;;;;;;;;;;6294490;28;20017;-84
2024/01/29 08:28:49;;;;;;;3.90;2.97;;;;;;;;;;6285938;28;20029;-83
2024/01/29 08:31:49;;;;;;;4.40;2.63;;;;;;;;;;6300464;28;20111;-83
2024/01/29 08:34:50;;;;;;;4.27;2.90;;;;;;;;;;6287926;28;20488;-83
2024/01/29 08:37:50;;;;;;;3.27;2.47;;;;;;;;;;6289465;28;20572;-82
2024/01/29 08:40:50;;;;;;;3.83;2.67;;;;;;;;;;6299002;28;20025;-83
2024/01/29 08:43:51;;;;;;;3.73;2.80;;;;;;;;;;6297307;28;20449;-83
2024/01/29 08:46:51;;;;;;;4.73;2.87;;;;;;;;;;6297902;28;20381;-83
2024/01/29 08:49:51;;;;;;;4.13;2.73;;;;;;;;;;6299387;28;20461;-83
2024/01/29 08:52:52;;;;;;;5.13;3.13;;;;;;;;;;6295657;28;20385;-84
2024/01/29 08:55:52;;;;;;;3.53;2.47;;;;;;;;;;6295190;28;20016;-84
2024/01/29 08:58:52;;;;;;;7.33;3.30;;;;;;;;;;6286270;28;20021;-83
2024/01/29 09:01:52;;;;;;;4.53;2.80;;;;;;;;;;6297363;28;20016;-83
2024/01/29 09:04:53;;;;;;;3.33;2.70;;;;;;;;;;6286727;28;20465;-83
2024/01/29 09:07:53;;;;;;;5.27;2.90;;;;;;;;;;6298499;28;20377;-87
2024/01/29 09:10:53;;;;;;;6.33;3.20;;;;;;;;;;6297562;28;20443;-85
2024/01/29 09:13:54;;;;;;;6.30;3.23;;;;;;;;;;6272049;28;20519;-87
2024/01/29 09:16:54;;;;;;;3.53;2.60;;;;;;;;;;6293368;28;20027;-87
2024/01/29 09:19:54;;;;;;;4.63;2.90;;;;;;;;;;6278631;28;20462;-85
2024/01/29 09:22:54;;;;;;;5.43;2.60;;;;;;;;;;6298540;28;20021;-86
2024/01/29 09:25:55;;;;;;;3.63;2.67;;;;;;;;;;6280279;28;20027;-86
2024/01/29 09:28:55;;;;;;;4.00;2.87;;;;;;;;;;6284883;28;20058;-86
2024/01/29 09:31:56;;;;;;;3.40;2.67;;;;;;;;;;6281367;28;20025;-86
2024/01/29 09:34:56;;;;;;;3.00;2.40;;;;;;;;;;6272687;28;20021;-86
2024/01/29 09:37:56;;;;;;;5.63;3.47;;;;;;;;;;6296174;28;20055;-87
2024/01/29 09:40:58;;;;;;;5.07;2.90;;;;;;;;;;6270808;28;20403;-87
2024/01/29 09:44:01;;;;;;;3.83;2.78;;;;;;;;;;6294000;28;20041;-87
2024/01/29 09:47:04;;;;;;;4.28;2.65;;;;;;;;;;6271516;28;20438;-87
2024/01/29 09:50:06;;;;;;;3.53;2.60;;;;;;;;;;6267740;28;20059;-87
2024/01/29 09:53:07;;;;;;;5.75;2.88;;;;;;;;;;5931502;28;10000043;-87
2024/01/29 09:56:07;;;;;;;3.13;2.60;;;;;;;;;;6280808;28;20056;-87
2024/01/29 09:59:10;;;;;;;5.90;2.97;;;;;;;;;;6275741;28;20028;-88
2024/01/29 10:02:11;;;;;;;4.35;2.70;;;;;;;;;;6300767;28;20131;-86
2024/01/29 10:05:11;;;;;;;4.23;2.50;;;;;;;;;;6271156;28;20432;-87
2024/01/29 10:08:12;;;;;;;4.70;2.67;;;;;;;;;;6279002;28;20295;-85
2024/01/29 10:11:13;;;;;;;4.15;2.95;;;;;;;;;;6291703;28;20036;-89
2024/01/29 10:14:16;;;;;;;4.27;2.77;;;;;;;;;;6312882;28;20040;-87
2024/01/29 10:17:16;;;;;;;4.40;2.65;;;;;;;;;;6312714;28;20105;-87
2024/01/29 10:20:20;;;;;;;4.30;2.77;;;;;;;;;;6317702;28;20477;-87
2024/01/29 10:23:21;;;;;;;5.35;2.47;;;;;;;;;;6312079;28;20419;-87
2024/01/29 10:26:21;;;;;;;4.03;2.63;;;;;;;;;;6320713;28;20036;-87
2024/01/29 10:29:22;;;;;;;4.07;2.23;;;;;;;;;;6317326;28;20325;-87
2024/01/29 10:32:25;;;;;;;3.70;2.35;;;;;;;;;;6321011;28;20035;-86
2024/01/29 10:35:25;;;;;;;3.35;2.50;;;;;;;;;;6314196;28;20032;-87
2024/01/29 10:38:26;;;;;;;3.53;2.60;;;;;;;;;;6329090;28;20035;-88
2024/01/29 10:41:29;;;;;;;3.83;2.90;;;;;;;;;;6330572;28;20012;-87
2024/01/29 10:44:32;;;;;;;5.03;2.92;;;;;;;;;;6308941;28;20032;-87
2024/01/29 10:47:35;;;;;;;4.03;2.85;;;;;;;;;;6315303;28;20047;-88
2024/01/29 10:50:37;;;;;;;3.95;2.85;;;;;;;;;;6325064;28;20461;-87
2024/01/29 10:53:38;;;;;;;4.22;2.67;;;;;;;;;;6323318;28;20020;-87
2024/01/29 10:56:38;;;;;;;3.35;2.60;;;;;;;;;;6323909;28;20073;-87
2024/01/29 10:59:41;;;;;;;3.93;2.63;;;;;;;;;;6329111;28;20032;-87
2024/01/29 11:02:42;;;;;;;3.78;2.50;;;;;;;;;;6322565;28;20457;-87
2024/01/29 11:05:49;;;;;;;4.28;2.90;;;;;;;;;;6303353;28;20024;-87
2024/01/29 11:08:53;;;;;;;3.65;2.53;;;;;;;;;;6325903;28;20024;-87
2024/01/29 11:11:54;;;;;;;3.03;2.50;;;;;;;;;;6328175;27;20089;-87
2024/01/29 11:14:59;;;;;;;4.35;3.30;;;;;;;;;;6354885;28;20015;-87
2024/01/29 11:17:59;;;;;;;3.95;2.58;;;;;;;;;;6345799;28;20040;-87
2024/01/29 11:21:00;;;;;;;3.77;2.70;;;;;;;;;;6346692;28;20072;-86
2024/01/29 11:24:00;;;;;;;4.23;2.67;;;;;;;;;;6355061;28;20080;-86
2024/01/29 11:27:05;;;;;;;4.87;2.57;;;;;;;;;;6364503;27;20539;-86
2024/01/29 11:30:19;;;;;;;4.03;2.47;;;;;;;;;;6356133;27;20063;-87
2024/01/29 11:33:19;;;;;;;3.00;2.38;;;;;;;;;;6350822;28;20023;-87
2024/01/29 11:36:21;;;;;;;3.70;2.30;;;;;;;;;;6346567;27;20031;-87
2024/01/29 11:39:27;;;;;;;4.22;2.30;;;;;;;;;;6378878;27;20455;-86
2024/01/29 11:42:27;;;;;;;3.95;2.63;;;;;;;;;;6329683;28;20028;-87
2024/01/29 11:45:31;;;;;;;6.13;2.77;;;;;;;;;;6321466;28;20020;-87
2024/01/29 11:48:31;;;;;;;5.25;2.97;;;;;;;;;;6348685;28;20110;-84
2024/01/29 11:51:32;;;;;;;4.33;2.53;;;;;;;;;;6318832;28;20495;-86
2024/01/29 11:54:32;;;;;;;3.83;2.53;;;;;;;;;;6324923;27;20037;-86
2024/01/29 11:57:32;;;;;;;5.13;2.80;;;;;;;;;;6333051;27;20495;-83
2024/01/29 12:00:33;;;;;;;4.23;2.60;;;;;;;;;;6327074;28;20362;-86
2024/01/29 12:03:34;;;;;;;3.03;2.47;;;;;;;;;;6312637;28;20119;-83
2024/01/29 12:06:35;;;;;;;4.07;2.80;;;;;;;;;;6332613;28;20028;-83
2024/01/29 12:09:36;;;;;;;3.50;2.63;;;;;;;;;;6338985;28;20031;-87
2024/01/29 12:12:36;;;;;;;4.70;2.93;;;;;;;;;;6343704;28;20555;-87
2024/01/29 12:15:36;;;;;;;4.13;2.70;;;;;;;;;;6335229;28;20445;-86
2024/01/29 12:18:38;;;;;;;3.73;2.30;;;;;;;;;;6323250;28;20032;-84
2024/01/29 12:21:41;;;;;;;5.43;2.80;;;;;;;;;;6339264;28;20080;-86
2024/01/29 12:24:42;;;;;;;5.55;2.25;;;;;;;;;;6349733;28;20027;-85
2024/01/29 12:27:42;;;;;;;4.13;2.47;;;;;;;;;;6351228;28;20062;-85
2024/01/29 12:30:42;;;;;;;3.90;2.77;;;;;;;;;;6351782;28;20146;-85
2024/01/29 12:33:46;;;;;;;3.87;2.67;;;;;;;;;;6332460;28;20034;-86
2024/01/29 12:36:53;;;;;;;4.45;2.58;;;;;;;;;;6346357;28;20024;-85
2024/01/29 12:39:54;;;;;;;3.67;2.33;;;;;;;;;;6326442;28;20024;-85
2024/01/29 12:42:59;;;;;;;4.68;2.00;;;;;;;;;;6351582;28;20368;-86
2024/01/29 12:46:08;;;;;;;2.28;1.63;;;;;;;;;;6351642;28;20020;-86
2024/01/29 12:49:09;;;;;;;2.67;1.80;;;;;;;;;;6346826;28;20099;-85
2024/01/29 12:52:10;;;;;;;2.60;1.63;;;;;;;;;;6333030;28;20455;-84
2024/01/29 12:55:10;;;;;;;2.93;1.70;;;;;;;;;;6323078;28;20020;-83
2024/01/29 12:58:10;;;;;;;1.93;1.63;;;;;;;;;;6331706;28;20515;-83
2024/01/29 13:01:10;;;;;;;2.10;1.80;;;;;;;;;;6349821;28;20015;-83
2024/01/29 13:04:11;;;;;;;3.50;1.73;;;;;;;;;;6346514;28;20410;-83
2024/01/29 13:07:11;;;;;;;2.77;1.57;;;;;;;;;;6348205;28;20038;-83
2024/01/29 13:10:12;;;;;;;2.43;1.60;;;;;;;;;;6330101;28;20111;-83
2024/01/29 13:13:12;;;;;;;2.10;1.50;;;;;;;;;;6310913;28;20052;-83
2024/01/29 13:16:12;;;;;;;2.17;1.57;;;;;;;;;;6321836;28;20016;-84
2024/01/29 13:19:12;;;;;;;4.10;1.90;;;;;;;;;;6311819;28;20024;-84
2024/01/29 13:22:13;;;;;;;3.67;2.00;;;;;;;;;;6318954;28;20445;-84
2024/01/29 13:25:14;;;;;;;2.47;1.63;;;;;;;;;;6323333;28;20060;-84
2024/01/29 13:28:14;;;;;;;3.45;2.03;;;;;;;;;;6326073;28;20031;-85
2024/01/29 13:31:14;;;;;;;2.87;1.67;;;;;;;;;;6324269;28;20036;-84
2024/01/29 13:34:19;;;;;;;3.03;1.93;;;;;;;;;;6328845;28;20465;-84
2024/01/29 13:37:19;;;;;;;2.42;1.60;;;;;;;;;;6320566;28;20023;-84
2024/01/29 13:40:20;;;;;;;2.80;1.67;;;;;;;;;;6322076;28;20044;-84
2024/01/29 13:43:20;;;;;;;3.80;1.50;;;;;;;;;;6324014;28;20510;-84
2024/01/29 13:46:20;;;;;;;4.20;1.77;;;;;;;;;;6318093;28;20336;-83
2024/01/29 13:49:21;;;;;;;2.10;1.57;;;;;;;;;;6337489;28;20023;-84
2024/01/29 13:52:21;;;;;;;3.20;1.70;;;;;;;;;;6317322;28;20484;-83
2024/01/29 13:55:21;;;;;;;1.83;1.37;;;;;;;;;;6322886;28;20024;-83
2024/01/29 13:58:21;;;;;;;3.03;1.60;;;;;;;;;;6327127;28;20138;-78
2024/01/29 14:01:22;;;;;;;2.63;1.63;;;;;;;;;;6348212;28;20016;-79
2024/01/29 14:04:22;;;;;;;2.67;1.50;;;;;;;;;;6332058;28;20034;-79
2024/01/29 14:07:22;;;;;;;2.27;1.57;;;;;;;;;;6320135;28;20505;-78
2024/01/29 14:10:22;;;;;;;3.37;1.50;;;;;;;;;;6324452;28;20405;-78
2024/01/29 14:13:22;;;;;;;1.63;1.33;;;;;;;;;;6330420;28;20432;-79
2024/01/29 14:16:23;;;;;;;3.53;1.63;;;;;;;;;;6346360;28;20024;-78
2024/01/29 14:19:23;;;;;;;2.10;1.30;;;;;;;;;;6322715;28;20032;-80
2024/01/29 14:22:23;;;;;;;3.03;1.50;;;;;;;;;;6347983;28;20103;-79
2024/01/29 14:25:24;;;;;;;1.77;1.33;;;;;;;;;;6342952;28;20016;-79
2024/01/29 14:28:25;;;;;;;2.40;1.50;;;;;;;;;;6329461;28;20051;-78
2024/01/29 14:31:25;;;;;;;1.97;1.30;;;;;;;;;;6309699;28;20043;-79
2024/01/29 14:34:25;;;;;;;3.23;1.70;;;;;;;;;;6319546;28;20062;-79
2024/01/29 14:37:25;;;;;;;3.70;1.67;;;;;;;;;;6317309;28;20023;-79
2024/01/29 14:40:26;;;;;;;2.40;1.57;;;;;;;;;;6347450;28;20028;-78
2024/01/29 14:43:27;;;;;;;1.92;1.63;;;;;;;;;;6329608;28;20106;-79
2024/01/29 14:46:27;;;;;;;4.27;1.60;;;;;;;;;;6347607;28;20023;-79
2024/01/29 14:49:28;;;;;;;2.13;1.87;;;;;;;;;;6345415;28;20115;-79
2024/01/29 14:52:28;;;;;;;3.20;1.90;;;;;;;;;;6322700;28;20392;-79
2024/01/29 14:55:29;;;;;;;3.78;1.90;;;;;;;;;;6344646;28;20433;-79
2024/01/29 14:58:29;;;;;;;4.00;1.87;;;;;;;;;;6307864;28;20040;-79
2024/01/29 15:01:33;;;;;;;2.07;1.80;;;;;;;;;;6322791;28;20103;-79
2024/01/29 15:04:33;;;;;;;2.63;1.70;;;;;;;;;;6319791;28;20103;-79
2024/01/29 15:07:34;;;;;;;2.23;1.33;;;;;;;;;;6332245;28;20104;-80
2024/01/29 15:10:35;;;;;;;2.60;1.70;;;;;;;;;;6312197;28;20062;-80
2024/01/29 15:13:35;;;;;;;1.92;1.45;;;;;;;;;;6305597;28;20158;-81
2024/01/29 15:16:35;;;;;;;3.63;1.80;;;;;;;;;;6303624;28;20032;-81
2024/01/29 15:19:36;;;;;;;1.67;1.43;;;;;;;;;;6347437;28;20118;-81
2024/01/29 15:22:37;;;;;;;2.05;1.42;;;;;;;;;;6351335;28;20023;-81
2024/01/29 15:25:38;;;;;;;2.03;1.53;;;;;;;;;;6351790;28;20083;-81
2024/01/29 15:28:38;;;;;;;;;;;;;;;;;;6324790;28;20026;-81
2024/01/29 15:31:39;;;;;;;1.98;1.40;;;;;;;;;;6326873;28;19940;-81
2024/01/29 15:34:47;;;;;;;4.20;2.10;;;;;;;;;;6326624;28;20065;-81
2024/01/29 15:37:47;;;;;;;3.35;1.83;;;;;;;;;;6351156;28;20460;-81
2024/01/29 15:40:52;;;;;;;2.80;1.87;;;;;;;;;;6347297;28;20024;-81
2024/01/29 15:43:52;;;;;;;2.78;1.80;;;;;;;;;;6342065;28;20043;-81
2024/01/29 15:46:52;;;;;;;3.03;1.93;;;;;;;;;;6352363;28;20041;-81
2024/01/29 15:49:53;;;;;;;2.17;1.60;;;;;;;;;;6346142;28;20031;-81
2024/01/29 15:52:53;;;;;;;2.90;1.67;;;;;;;;;;6350513;28;20034;-81
2024/01/29 15:55:53;;;;;;;3.53;1.97;;;;;;;;;;6351493;28;20019;-81
2024/01/29 15:58:55;;;;;;;2.43;2.00;;;;;;;;;;6351147;28;20027;-81
2024/01/29 16:01:57;;;;;;;2.78;1.80;;;;;;;;;;6333158;28;20049;-81
2024/01/29 16:04:57;;;;;;;2.83;1.88;;;;;;;;;;6346769;28;20016;-81
2024/01/29 16:07:59;;;;;;;3.63;1.83;;;;;;;;;;6335316;28;20089;-81
2024/01/29 16:10:59;;;;;;;6.15;1.85;;;;;;;;;;6335085;28;20152;-81
2024/01/29 16:13:59;;;;;;;3.20;1.77;;;;;;;;;;6340610;28;20056;-81
2024/01/29 16:17:00;;;;;;;3.27;2.00;;;;;;;;;;6350507;28;20051;-81
2024/01/29 16:20:00;;;;;;;3.13;2.13;;;;;;;;;;6346562;28;20039;-81
2024/01/29 16:23:03;;;;;;;1.60;1.50;;;;;;;;;;6347663;28;20483;-82
2024/01/29 16:26:04;;;;;;;4.43;1.98;;;;;;;;;;6349181;28;20023;-81
2024/01/29 16:29:06;;;;;;;4.90;2.17;;;;;;;;;;6323448;28;20024;-81
2024/01/29 16:32:06;;;;;;;4.05;2.08;;;;;;;;;;6325140;28;20066;-81
2024/01/29 16:35:07;;;;;;;3.50;2.00;;;;;;;;;;6323181;28;20395;-81
2024/01/29 16:38:07;;;;;;;2.97;1.70;;;;;;;;;;6334275;28;20024;-81
2024/01/29 16:41:07;;;;;;;3.10;2.03;;;;;;;;;;6324618;28;20282;-81
2024/01/29 16:44:10;;;;;;;3.80;2.30;;;;;;;;;;6338300;28;20047;-85
2024/01/29 16:47:10;;;;;;;3.85;1.83;;;;;;;;;;6349695;28;20027;-85
2024/01/29 16:50:11;;;;;;;3.83;2.13;;;;;;;;;;6348225;28;20117;-84
2024/01/29 16:53:11;;;;;;;3.57;1.97;;;;;;;;;;6347753;28;20065;-85
2024/01/29 16:56:11;;;;;;;2.80;1.90;;;;;;;;;;6349983;28;20376;-85
2024/01/29 16:59:12;;;;;;;3.40;1.97;;;;;;;;;;6331459;28;20031;-85
2024/01/29 17:02:17;;;;;;;2.80;2.30;;;;;;;;;;6350509;28;20028;-85
2024/01/29 17:05:20;;;;;;;3.75;2.88;;;;;;;;;;6347406;28;20028;-86
2024/01/29 17:08:20;;;;;;;3.83;2.65;;;;;;;;;;6344767;28;20020;-86
2024/01/29 17:11:20;;;;;;;3.70;2.47;;;;;;;;;;6345125;28;20011;-84
2024/01/29 17:14:21;;;;;;;3.30;2.37;;;;;;;;;;6343725;28;20055;-85
2024/01/29 17:17:21;;;;;;;3.77;2.30;;;;;;;;;;6347002;28;20022;-85
2024/01/29 17:20:21;;;;;;;3.27;2.23;;;;;;;;;;6323755;28;20058;-85
2024/01/29 17:23:21;;;;;;;2.83;2.20;;;;;;;;;;6323667;28;20479;-85
2024/01/29 17:26:22;;;;;;;5.17;2.60;;;;;;;;;;6347826;28;20082;-83
2024/01/29 17:29:22;;;;;;;4.10;2.40;;;;;;;;;;6331043;28;20544;-84
2024/01/29 17:32:22;;;;;;;2.93;2.10;;;;;;;;;;6349132;28;20031;-84
2024/01/29 17:35:22;;;;;;;3.70;2.17;;;;;;;;;;6341609;28;20105;-84
2024/01/29 17:38:23;;;;;;;3.80;2.40;;;;;;;;;;6344857;28;20036;-85
2024/01/29 17:41:23;;;;;;;5.87;2.23;;;;;;;;;;6346262;28;20040;-84
2024/01/29 17:44:23;;;;;;;4.00;2.27;;;;;;;;;;6346944;28;20043;-84
2024/01/29 17:47:23;;;;;;;2.90;2.00;;;;;;;;;;6348996;28;20026;-83
2024/01/29 17:50:24;;;;;;;2.67;2.07;;;;;;;;;;6345982;28;20129;-84
2024/01/29 17:53:24;;;;;;;4.80;2.27;;;;;;;;;;6348775;28;20122;-84
2024/01/29 17:56:24;;;;;;;3.33;2.40;;;;;;;;;;6329075;28;20077;-83
2024/01/29 17:59:25;;;;;;;3.07;2.20;;;;;;;;;;6322878;28;20115;-84
2024/01/29 18:02:25;;;;;;;2.17;1.83;;;;;;;;;;6344619;28;20015;-84
2024/01/29 18:05:25;;;;;;;4.63;2.53;;;;;;;;;;6346418;28;20395;-84